Time;durP1;ratioP1;P1;durP2;ratioP2;P2;SDS_P1;SDS_P2;PMS_P1;PMS_P2;Temp;Humidity;BMP_temperature;BMP_pressure;BME280_temperature;BME280_humidity;BME280_pressure;Samples;Min_cycle;Max_cycle;Signal;HPM_P1;HPM_P2
2021/05/10 00:00:51;;;;;;;6.15;2.42;;;19.20;59.60;;;;;;5012082;28;20109;-66
2021/05/10 00:03:18;;;;;;;5.82;2.40;;;19.20;59.70;;;;;;5011340;28;20153;-66
2021/05/10 00:05:44;;;;;;;5.63;2.35;;;19.10;59.60;;;;;;5011348;28;20069;-66
2021/05/10 00:08:10;;;;;;;5.28;2.42;;;19.00;59.60;;;;;;5011523;28;20037;-66
2021/05/10 00:10:36;;;;;;;6.88;2.40;;;19.00;59.70;;;;;;5011405;28;20034;-67
2021/05/10 00:13:03;;;;;;;4.18;2.20;;;18.90;59.70;;;;;;5011251;28;20078;-66
2021/05/10 00:15:30;;;;;;;8.40;2.30;;;18.90;59.80;;;;;;5011531;28;20128;-67
2021/05/10 00:18:02;;;;;;;4.95;2.40;;;18.90;59.70;;;;;;5011533;28;20030;-66
2021/05/10 00:20:33;;;;;;;6.05;2.40;;;18.80;59.70;;;;;;5010365;28;20121;-67
2021/05/10 00:22:59;;;;;;;3.95;2.15;;;18.70;59.80;;;;;;5010780;28;20041;-67
2021/05/10 00:25:26;;;;;;;6.53;2.22;;;18.80;59.80;;;;;;5011269;28;20398;-67
2021/05/10 00:27:52;;;;;;;6.68;2.38;;;18.80;59.80;;;;;;5011114;28;20045;-67
2021/05/10 00:30:19;;;;;;;4.07;2.10;;;18.70;59.70;;;;;;5010612;28;20057;-67
2021/05/10 00:32:45;;;;;;;4.72;2.30;;;18.70;59.70;;;;;;5011525;28;20111;-66
2021/05/10 00:35:13;;;;;;;3.97;2.10;;;18.70;59.60;;;;;;5010861;28;20494;-67
2021/05/10 00:37:39;;;;;;;5.13;2.13;;;18.70;59.50;;;;;;5027414;28;20041;-66
2021/05/10 00:40:08;;;;;;;6.13;2.20;;;18.70;59.40;;;;;;5029181;28;20037;-66
2021/05/10 00:42:38;;;;;;;4.40;2.17;;;18.70;59.30;;;;;;5028483;28;20032;-67
2021/05/10 00:45:05;;;;;;;5.27;2.20;;;18.60;59.20;;;;;;4993328;28;20161;-67
2021/05/10 00:47:31;;;;;;;4.85;2.00;;;18.60;59.20;;;;;;5009500;28;20330;-67
2021/05/10 00:49:57;;;;;;;5.72;2.40;;;18.50;59.10;;;;;;5011270;28;20089;-66
2021/05/10 00:52:23;;;;;;;4.10;2.28;;;18.50;59.30;;;;;;5018777;28;20033;-67
2021/05/10 00:54:49;;;;;;;4.13;2.10;;;18.40;59.30;;;;;;5029946;28;20486;-67
2021/05/10 00:57:16;;;;;;;7.05;2.28;;;18.30;59.40;;;;;;5030709;28;20045;-66
2021/05/10 00:59:42;;;;;;;4.85;2.30;;;18.30;59.60;;;;;;5030642;28;20448;-66
2021/05/10 01:02:08;;;;;;;5.30;2.30;;;18.20;59.60;;;;;;5030904;28;20091;-66
2021/05/10 01:04:33;;;;;;;4.50;2.10;;;18.10;59.90;;;;;;5028968;28;20235;-67
2021/05/10 01:07:00;;;;;;;3.92;2.40;;;18.00;60.10;;;;;;5012806;28;20029;-67
2021/05/10 01:09:26;;;;;;;4.88;2.20;;;18.00;60.20;;;;;;5030655;28;20065;-67
2021/05/10 01:11:52;;;;;;;5.28;2.30;;;17.90;60.30;;;;;;5030372;28;20061;-67
2021/05/10 01:14:17;;;;;;;3.65;2.10;;;17.90;60.40;;;;;;5028996;28;20046;-67
2021/05/10 01:16:43;;;;;;;4.13;2.28;;;17.90;60.50;;;;;;5029440;28;20049;-67
2021/05/10 01:19:09;;;;;;;4.53;2.53;;;17.90;60.50;;;;;;5030314;28;20037;-66
2021/05/10 01:21:35;;;;;;;4.68;2.28;;;17.80;60.60;;;;;;5030663;28;20045;-67
2021/05/10 01:24:02;;;;;;;5.00;2.38;;;17.70;60.60;;;;;;5029824;28;20053;-67
2021/05/10 01:26:28;;;;;;;6.00;2.70;;;17.70;60.70;;;;;;5030390;28;20102;-67
2021/05/10 01:28:54;;;;;;;4.47;2.10;;;17.60;61.00;;;;;;5030767;28;20045;-67
2021/05/10 01:31:20;;;;;;;5.15;2.50;;;17.60;61.10;;;;;;5030285;28;20046;-66
2021/05/10 01:33:45;;;;;;;5.57;2.33;;;17.50;61.20;;;;;;5030075;28;20044;-67
2021/05/10 01:36:12;;;;;;;5.57;2.40;;;17.50;61.30;;;;;;5029601;28;20144;-67
2021/05/10 01:38:38;;;;;;;5.00;2.50;;;17.40;61.40;;;;;;5029955;28;20057;-67
2021/05/10 01:41:04;;;;;;;7.05;2.30;;;17.40;61.50;;;;;;5012134;28;20084;-67
2021/05/10 01:43:30;;;;;;;4.22;2.30;;;17.40;61.70;;;;;;5033239;28;20095;-67
2021/05/10 01:45:55;;;;;;;4.38;2.28;;;17.40;61.90;;;;;;5034133;28;20375;-66
2021/05/10 01:48:21;;;;;;;5.40;2.50;;;17.30;61.90;;;;;;5034062;28;20032;-67
2021/05/10 01:50:48;;;;;;;5.35;2.53;;;17.20;62.00;;;;;;5033749;28;20091;-66
2021/05/10 01:53:14;;;;;;;4.53;2.42;;;17.20;62.20;;;;;;5033029;28;20034;-67
2021/05/10 01:55:41;;;;;;;7.32;2.63;;;17.10;62.30;;;;;;5031384;28;20041;-66
2021/05/10 01:58:08;;;;;;;4.53;2.30;;;17.10;62.50;;;;;;5025492;28;20038;-67
2021/05/10 02:00:40;;;;;;;4.68;2.40;;;17.10;62.50;;;;;;5033782;28;20037;-67
2021/05/10 02:03:18;;;;;;;6.47;2.53;;;17.00;62.60;;;;;;5033173;28;20099;-67
2021/05/10 02:05:45;;;;;;;5.55;2.40;;;17.00;62.80;;;;;;5033700;28;20041;-66
2021/05/10 02:08:12;;;;;;;5.82;2.40;;;17.00;62.80;;;;;;5033420;28;20047;-66
2021/05/10 02:10:40;;;;;;;8.75;2.50;;;17.00;62.80;;;;;;5033706;28;20537;-67
2021/05/10 02:13:08;;;;;;;5.32;2.42;;;16.90;62.80;;;;;;5032837;28;20073;-67
2021/05/10 02:15:43;;;;;;;5.63;2.25;;;16.90;62.80;;;;;;5033414;28;20559;-67
2021/05/10 02:18:10;;;;;;;6.22;2.50;;;16.90;62.70;;;;;;5033234;28;20068;-66
2021/05/10 02:20:36;;;;;;;5.53;2.28;;;16.90;62.70;;;;;;5033762;28;20030;-66
2021/05/10 02:23:07;;;;;;;5.30;2.50;;;16.90;62.70;;;;;;5033004;28;20029;-66
2021/05/10 02:25:38;;;;;;;4.45;2.13;;;16.90;62.80;;;;;;5032936;28;20498;-67
2021/05/10 02:28:05;;;;;;;5.68;2.38;;;16.80;62.60;;;;;;5032150;28;20064;-67
2021/05/10 02:30:32;;;;;;;6.13;2.42;;;16.80;62.50;;;;;;5032924;28;20083;-67
2021/05/10 02:33:00;;;;;;;4.80;2.17;;;16.80;62.40;;;;;;5032945;28;20034;-67
2021/05/10 02:35:25;;;;;;;4.88;2.30;;;16.80;62.40;;;;;;5033105;28;20037;-67
2021/05/10 02:37:54;;;;;;;5.60;2.40;;;16.80;62.40;;;;;;5030703;28;20387;-67
2021/05/10 02:40:20;;;;;;;4.93;2.35;;;16.80;62.30;;;;;;5033052;28;20029;-67
2021/05/10 02:42:46;;;;;;;5.20;2.30;;;16.80;62.20;;;;;;5031081;28;20413;-67
2021/05/10 02:45:14;;;;;;;3.95;2.03;;;16.80;62.20;;;;;;5032945;28;20044;-67
2021/05/10 02:47:40;;;;;;;4.43;2.20;;;16.80;62.10;;;;;;5032992;28;20041;-67
2021/05/10 02:50:12;;;;;;;6.40;2.20;;;16.80;62.00;;;;;;5030424;28;20056;-66
2021/05/10 02:52:38;;;;;;;4.35;2.30;;;16.80;61.90;;;;;;5032680;28;20118;-67
2021/05/10 02:55:06;;;;;;;5.38;2.17;;;16.80;61.90;;;;;;5023274;28;20060;-67
2021/05/10 02:57:32;;;;;;;5.70;2.40;;;16.80;62.30;;;;;;5031253;28;20052;-66
2021/05/10 02:59:57;;;;;;;6.55;2.22;;;16.80;61.70;;;;;;5031080;28;20038;-67
2021/05/10 03:02:23;;;;;;;5.32;2.28;;;16.90;61.60;;;;;;5032650;28;20080;-67
2021/05/10 03:04:49;;;;;;;4.03;2.10;;;16.90;61.60;;;;;;5032292;28;20068;-67
2021/05/10 03:07:15;;;;;;;4.95;2.40;;;16.90;61.50;;;;;;5032197;28;20039;-67
2021/05/10 03:09:41;;;;;;;4.93;2.13;;;16.90;61.30;;;;;;5031416;28;20401;-66
2021/05/10 03:12:07;;;;;;;4.50;2.47;;;16.90;61.30;;;;;;5032967;28;20083;-66
2021/05/10 03:14:33;;;;;;;3.92;2.10;;;16.90;61.30;;;;;;5031403;28;20116;-66
2021/05/10 03:16:58;;;;;;;4.57;2.05;;;16.90;61.20;;;;;;5014502;28;20125;-67
2021/05/10 03:19:24;;;;;;;4.70;2.25;;;16.90;61.10;;;;;;5030794;28;20418;-67
2021/05/10 03:21:50;;;;;;;5.63;2.50;;;16.90;61.20;;;;;;5032308;28;20490;-66
2021/05/10 03:24:15;;;;;;;4.93;1.95;;;16.90;61.30;;;;;;5030559;28;20493;-66
2021/05/10 03:26:41;;;;;;;3.70;2.00;;;16.90;61.40;;;;;;5031573;28;20041;-66
2021/05/10 03:29:08;;;;;;;3.67;2.15;;;16.90;61.30;;;;;;5014561;28;20068;-66
2021/05/10 03:31:34;;;;;;;5.55;2.40;;;16.90;61.20;;;;;;5031869;28;20144;-66
2021/05/10 03:34:00;;;;;;;4.68;2.20;;;17.00;61.20;;;;;;5031656;28;20042;-66
2021/05/10 03:36:26;;;;;;;5.20;2.10;;;17.10;61.10;;;;;;5031258;28;20132;-66
2021/05/10 03:38:52;;;;;;;4.18;2.05;;;17.10;60.90;;;;;;5029648;28;20041;-66
2021/05/10 03:41:18;;;;;;;4.32;1.90;;;17.10;60.60;;;;;;5031967;28;20044;-66
2021/05/10 03:43:44;;;;;;;4.90;1.90;;;17.20;60.50;;;;;;5031298;28;20040;-66
2021/05/10 03:46:10;;;;;;;4.50;1.98;;;17.20;60.40;;;;;;5031486;28;20395;-67
2021/05/10 03:48:35;;;;;;;3.92;2.00;;;17.10;60.20;;;;;;5031876;28;20040;-67
2021/05/10 03:51:01;;;;;;;3.70;1.80;;;17.10;60.10;;;;;;5030650;28;20088;-67
2021/05/10 03:53:27;;;;;;;3.92;1.98;;;17.10;60.10;;;;;;5031039;28;20041;-67
2021/05/10 03:55:52;;;;;;;4.60;1.90;;;17.10;60.60;;;;;;5019884;28;20037;-67
2021/05/10 03:58:18;;;;;;;5.55;1.90;;;17.00;60.00;;;;;;4997181;28;20119;-67
2021/05/10 04:00:44;;;;;;;3.70;1.80;;;17.10;60.10;;;;;;5029971;28;20060;-67
2021/05/10 04:03:14;;;;;;;4.80;2.10;;;17.10;60.00;;;;;;5029599;28;20111;-67
2021/05/10 04:11:24;;;;;;;4.18;2.10;;;17.00;60.30;;;;;;5031335;28;20037;-67
2021/05/10 04:13:57;;;;;;;5.88;2.22;;;17.00;60.60;;;;;;5029755;28;20045;-67
2021/05/10 04:16:22;;;;;;;4.53;2.00;;;17.10;60.60;;;;;;5028184;28;20585;-67
2021/05/10 04:18:48;;;;;;;4.40;2.03;;;17.10;60.50;;;;;;5028644;28;20133;-67
2021/05/10 04:21:14;;;;;;;5.03;2.22;;;17.10;60.50;;;;;;5029419;28;20124;-67
2021/05/10 04:23:39;;;;;;;4.90;2.15;;;17.20;60.40;;;;;;5029035;28;20405;-67
2021/05/10 04:26:05;;;;;;;6.57;2.08;;;17.20;60.20;;;;;;5029570;28;20105;-67
2021/05/10 04:28:31;;;;;;;4.78;2.17;;;17.20;60.00;;;;;;5027155;28;20029;-67
2021/05/10 04:30:57;;;;;;;6.38;2.13;;;17.20;59.90;;;;;;5031072;28;20116;-67
2021/05/10 04:33:31;;;;;;;4.35;1.80;;;17.20;59.80;;;;;;5028943;28;20124;-67
2021/05/10 04:35:57;;;;;;;4.68;2.10;;;17.20;59.80;;;;;;5030933;28;20048;-67
2021/05/10 04:38:24;;;;;;;4.65;2.10;;;17.20;59.70;;;;;;5029169;28;20572;-67
2021/05/10 04:40:50;;;;;;;5.68;2.20;;;17.20;59.70;;;;;;5031062;28;20033;-67
2021/05/10 04:43:16;;;;;;;6.65;2.00;;;17.30;59.70;;;;;;5030374;28;20049;-67
2021/05/10 04:45:42;;;;;;;5.68;2.10;;;17.40;59.70;;;;;;5030582;28;20414;-67
2021/05/10 04:48:08;;;;;;;4.32;1.98;;;17.50;59.60;;;;;;5031013;28;20486;-67
2021/05/10 04:50:34;;;;;;;5.80;2.03;;;17.60;59.50;;;;;;5030476;28;20069;-66
2021/05/10 04:53:00;;;;;;;4.13;1.98;;;17.70;59.30;;;;;;5030338;28;20036;-68
2021/05/10 04:55:26;;;;;;;4.57;2.10;;;17.80;59.20;;;;;;5014889;28;21057;-66
2021/05/10 04:57:52;;;;;;;5.22;2.10;;;17.80;58.90;;;;;;5028627;28;20033;-67
2021/05/10 05:00:18;;;;;;;5.18;1.90;;;17.80;58.70;;;;;;5030287;28;20429;-67
2021/05/10 05:02:45;;;;;;;5.25;2.20;;;17.80;58.50;;;;;;5012845;28;20712;-67
2021/05/10 05:05:11;;;;;;;4.68;1.90;;;17.90;58.60;;;;;;5027452;28;20038;-67
2021/05/10 05:07:39;;;;;;;5.53;1.85;;;17.90;58.50;;;;;;5030452;28;20030;-67
2021/05/10 05:10:09;;;;;;;5.43;2.13;;;17.80;58.40;;;;;;5030383;28;20065;-68
2021/05/10 05:12:37;;;;;;;5.03;2.03;;;17.80;58.40;;;;;;5030834;28;20060;-68
2021/05/10 05:15:07;;;;;;;4.07;1.85;;;17.90;58.50;;;;;;5028709;28;20107;-68
2021/05/10 05:17:34;;;;;;;7.47;1.90;;;17.90;58.50;;;;;;5033125;28;20124;-67
2021/05/10 05:20:00;;;;;;;4.65;2.00;;;18.00;58.40;;;;;;5034759;28;20048;-67
2021/05/10 05:22:25;;;;;;;5.05;2.08;;;18.20;58.50;;;;;;5034394;28;20034;-67
2021/05/10 05:24:51;;;;;;;6.25;2.25;;;18.10;58.30;;;;;;5034033;28;20037;-67
2021/05/10 05:27:17;;;;;;;5.30;2.00;;;18.20;58.30;;;;;;5033640;28;20048;-67
2021/05/10 05:29:43;;;;;;;6.43;2.05;;;18.20;58.10;;;;;;5034412;28;20037;-67
2021/05/10 05:32:08;;;;;;;4.47;2.20;;;18.30;58.10;;;;;;5034289;28;20049;-67
2021/05/10 05:34:34;;;;;;;7.40;2.05;;;18.40;58.00;;;;;;5033431;28;20037;-66
2021/05/10 05:37:00;;;;;;;4.65;2.15;;;18.40;57.90;;;;;;5032968;28;20039;-67
2021/05/10 05:39:26;;;;;;;4.68;1.95;;;18.50;57.80;;;;;;5032846;28;20045;-67
2021/05/10 05:41:52;;;;;;;5.88;2.00;;;18.60;57.70;;;;;;5032572;28;20045;-67
2021/05/10 05:44:18;;;;;;;4.72;2.30;;;18.70;57.50;;;;;;5033706;28;20033;-67
2021/05/10 05:46:48;;;;;;;7.22;2.22;;;18.70;57.60;;;;;;5031786;28;20056;-67
2021/05/10 05:49:14;;;;;;;4.53;2.10;;;18.80;57.70;;;;;;5034307;28;20507;-67
2021/05/10 05:51:39;;;;;;;5.88;2.10;;;18.80;57.60;;;;;;5034028;28;20033;-66
2021/05/10 05:54:07;;;;;;;5.07;2.03;;;18.80;57.70;;;;;;5032612;28;20560;-67
2021/05/10 05:56:32;;;;;;;8.75;2.30;;;18.80;57.60;;;;;;5032232;28;20045;-66
2021/05/10 05:58:58;;;;;;;5.13;2.17;;;18.80;57.60;;;;;;5033828;28;20045;-67
2021/05/10 06:01:25;;;;;;;4.88;2.33;;;18.70;57.60;;;;;;5033500;28;20041;-63
2021/05/10 06:03:53;;;;;;;5.50;1.90;;;18.80;57.60;;;;;;5018839;28;20042;-62
2021/05/10 06:06:19;;;;;;;5.72;2.00;;;18.80;57.60;;;;;;5012105;28;20037;-64
2021/05/10 06:08:45;;;;;;;4.82;1.80;;;18.90;57.70;;;;;;5014096;28;20044;-64
2021/05/10 06:11:11;;;;;;;6.88;2.00;;;19.00;57.60;;;;;;5013896;28;20030;-64
2021/05/10 06:13:37;;;;;;;5.97;2.00;;;19.00;57.40;;;;;;5012606;28;20038;-65
2021/05/10 06:16:04;;;;;;;4.85;2.05;;;19.10;57.10;;;;;;5013589;28;20053;-64
2021/05/10 06:18:30;;;;;;;9.45;2.10;;;19.20;57.00;;;;;;5013149;28;20041;-65
2021/05/10 06:21:00;;;;;;;5.90;2.05;;;19.30;56.80;;;;;;5013851;28;20509;-64
2021/05/10 06:23:25;;;;;;;5.38;2.25;;;19.30;56.60;;;;;;5013216;28;20050;-64
2021/05/10 06:25:52;;;;;;;6.70;2.13;;;19.30;56.60;;;;;;5011428;28;20037;-64
2021/05/10 06:28:17;;;;;;;4.82;2.00;;;19.30;56.40;;;;;;5010479;28;20503;-64
2021/05/10 06:30:43;;;;;;;4.60;1.90;;;19.30;56.40;;;;;;5012162;28;20057;-64
2021/05/10 06:33:09;;;;;;;5.20;2.20;;;19.30;56.40;;;;;;5010677;28;20038;-64
2021/05/10 06:35:34;;;;;;;6.85;2.20;;;19.30;56.30;;;;;;5013008;28;20490;-64
2021/05/10 06:38:00;;;;;;;5.88;2.33;;;19.30;56.30;;;;;;5011942;28;20092;-64
2021/05/10 06:40:26;;;;;;;6.97;2.15;;;19.30;57.00;;;;;;5011329;28;20038;-63
2021/05/10 06:42:51;;;;;;;7.85;2.30;;;19.30;56.50;;;;;;4994989;28;20068;-65
2021/05/10 06:45:17;;;;;;;8.48;2.33;;;19.40;56.40;;;;;;5012167;28;20104;-66
2021/05/10 06:47:43;;;;;;;7.07;2.08;;;19.40;56.30;;;;;;5013249;28;20040;-66
2021/05/10 06:50:10;;;;;;;10.50;2.47;;;19.40;56.20;;;;;;5011650;28;20037;-66
2021/05/10 06:52:36;;;;;;;4.72;2.28;;;19.30;56.20;;;;;;5012946;28;20037;-66
2021/05/10 06:55:03;;;;;;;6.60;2.20;;;19.30;56.40;;;;;;5012513;28;20115;-65
2021/05/10 06:57:29;;;;;;;6.85;2.20;;;19.30;56.60;;;;;;5012367;28;20042;-66
2021/05/10 06:59:55;;;;;;;4.32;1.95;;;19.40;56.80;;;;;;5013020;28;20049;-66
2021/05/10 07:02:22;;;;;;;5.93;2.10;;;19.50;56.80;;;;;;5012675;28;20038;-67
2021/05/10 07:04:48;;;;;;;6.70;2.30;;;19.50;56.70;;;;;;5012356;28;20042;-66
2021/05/10 07:07:14;;;;;;;5.25;2.20;;;19.60;56.70;;;;;;5011639;28;20045;-67
2021/05/10 07:09:41;;;;;;;4.85;2.20;;;19.60;57.00;;;;;;5012394;28;20075;-67
2021/05/10 07:12:07;;;;;;;6.82;2.30;;;19.80;57.30;;;;;;5012712;28;20042;-67
2021/05/10 07:14:32;;;;;;;5.03;2.13;;;19.90;57.00;;;;;;5011921;28;20037;-66
2021/05/10 07:16:58;;;;;;;6.97;2.42;;;20.10;57.40;;;;;;5012605;28;20049;-67
2021/05/10 07:19:24;;;;;;;5.65;2.22;;;20.20;56.70;;;;;;5012651;28;20049;-67
2021/05/10 07:21:50;;;;;;;6.55;2.60;;;20.40;56.80;;;;;;5011967;28;20085;-67
2021/05/10 07:24:17;;;;;;;5.28;2.25;;;20.60;56.70;;;;;;5012072;28;20041;-66
2021/05/10 07:26:42;;;;;;;9.55;2.20;;;20.70;56.50;;;;;;5010621;28;20112;-66
2021/05/10 07:29:08;;;;;;;3.95;1.90;;;20.90;56.30;;;;;;5012205;28;20547;-66
2021/05/10 07:31:34;;;;;;;4.03;2.08;;;21.10;56.20;;;;;;5012380;28;20165;-68
2021/05/10 07:33:59;;;;;;;5.80;1.95;;;21.30;55.90;;;;;;5009859;28;20181;-65
2021/05/10 07:36:25;;;;;;;6.07;2.08;;;21.40;55.20;;;;;;5010910;28;20124;-66
2021/05/10 07:38:51;;;;;;;5.53;2.30;;;21.40;54.80;;;;;;5012056;28;20034;-67
2021/05/10 07:41:17;;;;;;;5.68;2.17;;;21.40;54.70;;;;;;5010386;28;20038;-65
2021/05/10 07:43:43;;;;;;;5.68;2.10;;;21.50;54.90;;;;;;5011637;28;20555;-66
2021/05/10 07:46:09;;;;;;;7.63;2.40;;;21.70;54.90;;;;;;5011735;28;20088;-66
2021/05/10 07:48:35;;;;;;;5.10;2.15;;;21.90;55.00;;;;;;5012059;28;20068;-66
2021/05/10 07:51:00;;;;;;;5.75;2.10;;;22.30;54.60;;;;;;5010661;28;20049;-65
2021/05/10 07:53:26;;;;;;;6.53;2.20;;;22.70;54.10;;;;;;5010969;28;20034;-67
2021/05/10 07:55:53;;;;;;;5.18;1.90;;;23.60;54.30;;;;;;5010010;28;20038;-69
2021/05/10 07:58:24;;;;;;;4.95;2.10;;;25.40;56.00;;;;;;5010276;28;20030;-69
2021/05/10 08:00:55;;;;;;;4.82;1.90;;;26.80;51.80;;;;;;5011538;28;20038;-70
2021/05/10 08:03:23;;;;;;;5.13;2.00;;;27.80;50.00;;;;;;5011358;28;20084;-69
2021/05/10 08:05:48;;;;;;;6.68;2.10;;;27.80;46.40;;;;;;5025172;28;20460;-68
2021/05/10 08:08:16;;;;;;;6.70;2.15;;;29.20;48.70;;;;;;5031374;28;20049;-70
2021/05/10 08:10:43;;;;;;;5.82;2.10;;;31.90;46.90;;;;;;5031059;28;20037;-70
2021/05/10 08:13:09;;;;;;;5.65;1.90;;;34.30;43.20;;;;;;5029564;28;20037;-66
2021/05/10 08:15:35;;;;;;;4.13;1.70;;;36.20;38.90;;;;;;5031100;28;20033;-67
2021/05/10 08:18:01;;;;;;;8.10;2.00;;;37.30;35.80;;;;;;5030568;28;20107;-68
2021/05/10 08:20:27;;;;;;;5.28;1.88;;;36.80;33.00;;;;;;5031184;28;20100;-67
2021/05/10 08:22:52;;;;;;;4.68;1.63;;;35.50;31.40;;;;;;5030352;28;20041;-67
2021/05/10 08:25:19;;;;;;;5.47;1.70;;;34.30;31.90;;;;;;5030519;28;20040;-67
2021/05/10 08:27:45;;;;;;;3.85;1.58;;;35.50;34.10;;;;;;5030981;28;20094;-65
2021/05/10 08:30:12;;;;;;;8.63;1.83;;;37.90;33.30;;;;;;5030598;28;20040;-65
2021/05/10 08:32:38;;;;;;;5.45;1.70;;;38.60;30.00;;;;;;5030790;28;20037;-65
2021/05/10 08:35:05;;;;;;;4.95;1.70;;;38.40;29.40;;;;;;5030436;28;20516;-65
2021/05/10 08:37:31;;;;;;;5.60;1.83;;;38.10;28.40;;;;;;5029756;28;20123;-64
2021/05/10 08:39:58;;;;;;;4.13;1.58;;;37.30;28.10;;;;;;5030897;28;20497;-65
2021/05/10 08:42:25;;;;;;;7.00;1.92;;;36.90;28.70;;;;;;5029683;28;20033;-66
2021/05/10 08:44:50;;;;;;;5.57;1.83;;;36.70;27.90;;;;;;5028644;28;20037;-65
2021/05/10 08:47:20;;;;;;;7.38;1.98;;;35.60;27.80;;;;;;5031056;28;20456;-66
2021/05/10 08:49:46;;;;;;;;;;;34.90;28.50;;;;;;5030970;28;20037;-67
2021/05/10 08:52:11;;;;;;;4.70;1.77;;;35.00;29.10;;;;;;5030197;28;19942;-68
2021/05/10 08:54:38;;;;;;;6.32;1.90;;;35.50;29.00;;;;;;5030064;28;20045;-66
2021/05/10 08:57:04;;;;;;;8.95;1.70;;;37.20;29.00;;;;;;5029163;28;20091;-67
2021/05/10 08:59:30;;;;;;;5.72;1.75;;;38.40;28.00;;;;;;5031070;28;20041;-68
2021/05/10 09:01:59;;;;;;;4.53;1.70;;;39.00;26.90;;;;;;5029219;28;20040;-67
2021/05/10 09:04:35;;;;;;;6.97;2.00;;;38.60;26.80;;;;;;5030262;28;20033;-68
2021/05/10 09:07:17;;;;;;;5.72;1.77;;;38.40;26.60;;;;;;5030187;28;20435;-67
2021/05/10 09:09:59;;;;;;;6.80;1.60;;;37.70;26.20;;;;;;5029499;28;20275;-66
2021/05/10 09:12:47;;;;;;;5.70;1.48;;;36.00;26.30;;;;;;5030331;28;20340;-66
2021/05/10 09:15:27;;;;;;;6.38;1.73;;;34.40;27.10;;;;;;5028924;28;20049;-66
2021/05/10 09:17:53;;;;;;;7.00;1.65;;;33.30;27.70;;;;;;5030551;28;20041;-66
2021/05/10 09:20:22;;;;;;;5.13;1.60;;;32.20;28.10;;;;;;5030129;28;20452;-66
2021/05/10 09:22:54;;;;;;;5.00;1.60;;;31.30;28.80;;;;;;5030363;28;20033;-65
2021/05/10 09:25:30;;;;;;;5.25;1.40;;;30.80;29.60;;;;;;5030365;28;20045;-66
2021/05/10 09:28:19;;;;;;;4.53;1.60;;;32.50;31.20;;;;;;5029134;28;20458;-66
2021/05/10 09:30:49;;;;;;;5.55;1.50;;;36.10;30.20;;;;;;5028869;28;20038;-67
2021/05/10 09:33:22;;;;;;;6.28;1.30;;;38.90;28.60;;;;;;5030056;28;20048;-66
2021/05/10 09:35:49;;;;;;;3.38;1.25;;;40.40;27.30;;;;;;5028678;28;20042;-65
2021/05/10 09:38:20;;;;;;;4.45;1.30;;;40.20;25.60;;;;;;5029260;28;20029;-67
2021/05/10 09:40:47;;;;;;;5.50;1.35;;;38.90;24.80;;;;;;5028727;28;20749;-66
2021/05/10 09:43:16;;;;;;;4.50;1.30;;;38.00;25.10;;;;;;5028352;28;20560;-68
2021/05/10 09:45:46;;;;;;;5.80;1.20;;;37.50;25.30;;;;;;5030430;28;20559;-66
2021/05/10 09:48:15;;;;;;;;;;;37.80;25.40;;;;;;5029715;28;20029;-67
2021/05/10 09:50:42;;;;;;;;;;;37.70;25.40;;;;;;5030551;28;20381;-68
2021/05/10 09:53:14;;;;;;;4.65;1.30;;;38.60;25.70;;;;;;5029562;28;19921;-68
2021/05/10 09:55:53;;;;;;;4.07;1.23;;;38.80;24.70;;;;;;5030366;28;20033;-68
2021/05/10 09:58:21;;;;;;;5.18;1.30;;;37.90;24.40;;;;;;5029766;28;20041;-67
2021/05/10 10:00:53;;;;;;;3.40;1.20;;;38.50;25.10;;;;;;5030318;28;20158;-66
2021/05/10 10:03:42;;;;;;;3.78;1.23;;;40.50;24.90;;;;;;5031200;28;20060;-68
2021/05/10 10:06:11;;;;;;;3.33;1.20;;;42.80;24.20;;;;;;5033863;28;20034;-66
2021/05/10 10:08:38;;;;;;;7.03;1.20;;;44.50;23.50;;;;;;5032323;28;20071;-67
2021/05/10 10:11:06;;;;;;;4.72;1.52;;;46.30;22.90;;;;;;5033496;28;20076;-67
2021/05/10 10:13:32;;;;;;;;;;;47.70;22.30;;;;;;5032992;28;20030;-67
2021/05/10 10:15:59;;;;;;;3.13;1.05;;;49.00;22.20;;;;;;5033505;28;19967;-67
2021/05/10 10:18:26;;;;;;;3.38;1.20;;;49.30;21.20;;;;;;5033493;28;20488;-67
2021/05/10 10:20:54;;;;;;;2.42;1.00;;;49.60;20.90;;;;;;5033171;28;20409;-66
2021/05/10 10:23:22;;;;;;;3.90;1.20;;;49.90;20.70;;;;;;5033041;28;20088;-66
2021/05/10 10:25:49;;;;;;;3.33;1.20;;;49.60;20.10;;;;;;5032787;28;20041;-67
2021/05/10 10:28:17;;;;;;;4.30;1.00;;;49.20;20.40;;;;;;5033271;28;20037;-66
2021/05/10 10:30:58;;;;;;;3.30;1.20;;;49.50;20.30;;;;;;5032164;28;20053;-66
2021/05/10 10:33:58;;;;;;;5.30;1.25;;;48.00;19.80;;;;;;5032903;28;20037;-66
2021/05/10 10:36:29;;;;;;;3.63;1.00;;;44.90;20.10;;;;;;5032804;28;20544;-66
2021/05/10 10:39:13;;;;;;;3.50;1.20;;;42.30;20.80;;;;;;5033347;28;20418;-66
2021/05/10 10:41:56;;;;;;;4.40;1.20;;;42.50;22.20;;;;;;5032947;28;20370;-66
2021/05/10 10:44:29;;;;;;;3.08;1.30;;;45.20;22.00;;;;;;5031969;28;20506;-65
2021/05/10 10:46:55;;;;;;;3.30;1.25;;;47.40;21.30;;;;;;5031681;28;20470;-66
2021/05/10 10:49:34;;;;;;;4.32;1.40;;;48.90;20.80;;;;;;5032960;28;20046;-67
2021/05/10 10:52:00;;;;;;;2.58;1.20;;;49.90;20.20;;;;;;5032884;28;20481;-66
2021/05/10 10:54:28;;;;;;;3.63;1.55;;;50.00;19.90;;;;;;5032320;28;20096;-67
2021/05/10 10:56:58;;;;;;;3.88;1.30;;;49.70;19.50;;;;;;5030927;28;20530;-67
2021/05/10 10:59:35;;;;;;;5.80;1.40;;;49.20;19.60;;;;;;5032857;28;20124;-67
2021/05/10 11:02:27;;;;;;;4.95;1.67;;;47.50;19.40;;;;;;5032497;28;20524;-66
2021/05/10 11:05:19;;;;;;;4.80;1.60;;;45.00;19.80;;;;;;5030358;28;20124;-66
2021/05/10 11:07:53;;;;;;;5.35;1.63;;;44.20;21.10;;;;;;5031266;28;20502;-67
2021/05/10 11:10:41;;;;;;;4.03;1.70;;;46.10;21.30;;;;;;5030808;28;21140;-66
2021/05/10 11:13:30;;;;;;;3.90;1.60;;;45.30;20.40;;;;;;5031740;28;20130;-67
2021/05/10 11:16:06;;;;;;;3.50;1.40;;;43.50;20.50;;;;;;5031965;28;20685;-66
2021/05/10 11:18:31;;;;;;;7.65;1.75;;;41.90;21.30;;;;;;5030785;28;20084;-66
2021/05/10 11:20:57;;;;;;;5.55;1.80;;;40.60;21.50;;;;;;5032458;28;20402;-67
2021/05/10 11:23:25;;;;;;;4.80;1.70;;;39.20;21.90;;;;;;5030875;28;20029;-68
2021/05/10 11:25:55;;;;;;;8.38;1.95;;;37.80;22.40;;;;;;5029782;28;20037;-68
2021/05/10 11:28:24;;;;;;;4.88;1.67;;;36.30;23.00;;;;;;5032441;28;20045;-68
2021/05/10 11:31:03;;;;;;;5.80;1.60;;;35.00;23.80;;;;;;5032038;28;20059;-68
2021/05/10 11:33:53;;;;;;;6.33;1.80;;;34.10;24.60;;;;;;5031421;28;20332;-67
2021/05/10 11:36:31;;;;;;;6.25;1.73;;;33.70;25.20;;;;;;5032024;28;20280;-67
2021/05/10 11:39:09;;;;;;;4.60;1.52;;;33.60;25.60;;;;;;5031731;28;20038;-67
2021/05/10 11:41:43;;;;;;;4.75;1.25;;;33.50;26.00;;;;;;5030697;28;20052;-67
2021/05/10 11:44:21;;;;;;;6.20;1.70;;;33.20;26.90;;;;;;5031125;28;20125;-67
2021/05/10 11:46:48;;;;;;;3.83;1.50;;;33.00;26.90;;;;;;5031738;28;20041;-67
2021/05/10 11:49:41;;;;;;;5.57;1.70;;;32.60;26.80;;;;;;5031371;28;20063;-66
2021/05/10 11:52:11;;;;;;;8.18;1.80;;;32.00;27.00;;;;;;5031556;28;20037;-66
2021/05/10 11:54:41;;;;;;;3.35;1.40;;;31.40;27.30;;;;;;5031647;28;20120;-67
2021/05/10 11:57:08;;;;;;;5.32;1.60;;;30.80;27.80;;;;;;5031408;28;20094;-68
2021/05/10 11:59:47;;;;;;;4.50;1.58;;;30.40;28.10;;;;;;5031275;28;20061;-67
2021/05/10 12:02:23;;;;;;;6.57;1.65;;;30.10;28.40;;;;;;5031273;28;20489;-67
2021/05/10 12:05:00;;;;;;;5.03;1.58;;;29.80;28.50;;;;;;5031170;28;20120;-66
2021/05/10 12:07:28;;;;;;;3.47;1.52;;;29.70;28.80;;;;;;5029668;28;20048;-65
2021/05/10 12:10:00;;;;;;;4.15;1.70;;;29.80;29.00;;;;;;5031340;28;20045;-65
2021/05/10 12:12:32;;;;;;;6.95;1.60;;;30.00;29.10;;;;;;5031144;28;20048;-66
2021/05/10 12:15:05;;;;;;;3.63;1.58;;;30.40;29.20;;;;;;5030862;28;20092;-67
2021/05/10 12:17:30;;;;;;;4.15;1.50;;;30.80;28.80;;;;;;5030013;28;20132;-66
2021/05/10 12:20:01;;;;;;;4.18;1.50;;;30.80;28.50;;;;;;5030907;28;20492;-67
2021/05/10 12:22:30;;;;;;;4.07;1.40;;;30.70;28.80;;;;;;5031245;28;20485;-67
2021/05/10 12:24:57;;;;;;;5.03;1.80;;;30.70;28.90;;;;;;5030400;28;20413;-67
2021/05/10 12:27:25;;;;;;;8.57;1.70;;;30.60;28.80;;;;;;5030297;28;20048;-67
2021/05/10 12:29:52;;;;;;;8.70;1.70;;;30.40;29.20;;;;;;5030673;28;20033;-65
2021/05/10 12:32:17;;;;;;;4.80;1.30;;;30.10;29.50;;;;;;5029889;28;20040;-67
2021/05/10 12:34:44;;;;;;;5.72;1.50;;;30.00;30.20;;;;;;5030429;28;20041;-67
2021/05/10 12:37:10;;;;;;;5.05;1.50;;;30.30;30.60;;;;;;5029065;28;20122;-67
2021/05/10 12:39:37;;;;;;;8.73;1.63;;;30.50;30.50;;;;;;5031011;28;20107;-67
2021/05/10 12:42:20;;;;;;;5.93;1.75;;;30.60;30.20;;;;;;5030619;28;20048;-67
2021/05/10 12:45:02;;;;;;;5.25;1.50;;;30.50;30.30;;;;;;5030416;28;20049;-66
2021/05/10 12:47:50;;;;;;;6.80;1.50;;;30.50;30.70;;;;;;5030527;28;20041;-66
2021/05/10 12:51:00;;;;;;;5.05;1.60;;;30.80;30.60;;;;;;5030512;28;20064;-66
2021/05/10 12:53:41;;;;;;;3.50;1.27;;;30.60;30.70;;;;;;5027590;28;20088;-67
2021/05/10 12:56:26;;;;;;;5.35;1.52;;;30.50;30.90;;;;;;5030847;28;20399;-67
2021/05/10 12:58:53;;;;;;;6.60;1.70;;;30.60;31.40;;;;;;5030751;28;20051;-66
2021/05/10 13:01:26;;;;;;;4.25;1.20;;;30.90;31.40;;;;;;5030876;28;20120;-66